Caldes de Montbui, Spain
Current Conditions -  °F | °C
As of 2:00 PM on Sunday 23 Nov 2014 (Local Time) from LELL Reporting Station
Few Clouds Few Clouds  
Wind Chill: 70°   Ceiling: Unl
Heat Index: 70°   Visibility: 6mi
Dew Point: 61°   Wind: 1mph
Humidity: 73%   Direction: NA
Pressure: 30.06"   Gusts: NA
Location:  41.63°N, 2.17°E
Report Text: LELL 231300Z VRB01KT 9999 FEW035 21/16 Q1018 NOSIG
Loading
Personal Weather Stations






























Interactive Weather Map New forecast layout! Learn more

10-Day Weather Forecast

Advertisements
Track Severe Weather on mobile